sensor_id;sensor_type;location;lat;lon;timestamp;temperature;humidity
1359;DHT22;673;48.098;14.422;2022-11-15T00:02:07;5.80;99.90
1359;DHT22;673;48.098;14.422;2022-11-15T00:04:34;5.60;99.90
1359;DHT22;673;48.098;14.422;2022-11-15T00:07:01;5.50;99.90
1359;DHT22;673;48.098;14.422;2022-11-15T00:09:28;5.30;99.90
1359;DHT22;673;48.098;14.422;2022-11-15T00:11:55;5.20;99.90
1359;DHT22;673;48.098;14.422;2022-11-15T00:14:24;5.20;99.90
1359;DHT22;673;48.098;14.422;2022-11-15T00:16:50;5.10;99.90
1359;DHT22;673;48.098;14.422;2022-11-15T00:19:17;5.00;99.90
1359;DHT22;673;48.098;14.422;2022-11-15T00:21:44;4.90;99.90
1359;DHT22;673;48.098;14.422;2022-11-15T00:24:11;4.90;99.90
1359;DHT22;673;48.098;14.422;2022-11-15T00:26:38;4.90;99.90
1359;DHT22;673;48.098;14.422;2022-11-15T00:29:05;4.90;99.90
1359;DHT22;673;48.098;14.422;2022-11-15T00:31:34;4.90;99.90
1359;DHT22;673;48.098;14.422;2022-11-15T00:34:00;4.90;99.90
1359;DHT22;673;48.098;14.422;2022-11-15T00:36:27;4.80;99.90
1359;DHT22;673;48.098;14.422;2022-11-15T00:38:54;4.80;99.90
1359;DHT22;673;48.098;14.422;2022-11-15T00:41:21;4.80;99.90
1359;DHT22;673;48.098;14.422;2022-11-15T00:43:48;4.70;99.90
1359;DHT22;673;48.098;14.422;2022-11-15T00:46:15;4.70;99.90
1359;DHT22;673;48.098;14.422;2022-11-15T00:48:43;4.80;99.90
1359;DHT22;673;48.098;14.422;2022-11-15T00:51:10;4.90;99.90
1359;DHT22;673;48.098;14.422;2022-11-15T00:53:37;4.80;99.90
1359;DHT22;673;48.098;14.422;2022-11-15T00:56:05;4.80;99.90
1359;DHT22;673;48.098;14.422;2022-11-15T00:58:32;4.80;99.90
1359;DHT22;673;48.098;14.422;2022-11-15T01:01:06;4.80;99.90
1359;DHT22;673;48.098;14.422;2022-11-15T01:03:33;4.90;99.90
1359;DHT22;673;48.098;14.422;2022-11-15T01:06:02;5.00;99.90
1359;DHT22;673;48.098;14.422;2022-11-15T01:08:30;4.90;99.90
1359;DHT22;673;48.098;14.422;2022-11-15T01:11:00;5.00;99.90
1359;DHT22;673;48.098;14.422;2022-11-15T01:13:30;5.00;99.90
1359;DHT22;673;48.098;14.422;2022-11-15T01:15:57;4.90;99.90
1359;DHT22;673;48.098;14.422;2022-11-15T01:18:24;4.90;99.90
1359;DHT22;673;48.098;14.422;2022-11-15T01:20:51;5.00;99.90
1359;DHT22;673;48.098;14.422;2022-11-15T01:23:19;5.00;99.90
1359;DHT22;673;48.098;14.422;2022-11-15T01:25:46;5.00;99.90
1359;DHT22;673;48.098;14.422;2022-11-15T01:28:13;5.00;99.90
1359;DHT22;673;48.098;14.422;2022-11-15T01:30:40;4.90;99.90
1359;DHT22;673;48.098;14.422;2022-11-15T01:33:07;4.80;99.90
1359;DHT22;673;48.098;14.422;2022-11-15T01:35:38;4.80;99.90
1359;DHT22;673;48.098;14.422;2022-11-15T01:38:05;4.80;99.90
1359;DHT22;673;48.098;14.422;2022-11-15T01:40:34;4.80;99.90
1359;DHT22;673;48.098;14.422;2022-11-15T01:43:19;4.80;99.90
1359;DHT22;673;48.098;14.422;2022-11-15T01:45:47;4.80;99.90
1359;DHT22;673;48.098;14.422;2022-11-15T01:48:16;4.70;99.90
1359;DHT22;673;48.098;14.422;2022-11-15T01:50:44;4.80;99.90
1359;DHT22;673;48.098;14.422;2022-11-15T01:53:12;4.90;99.90
1359;DHT22;673;48.098;14.422;2022-11-15T01:55:40;4.90;99.90
1359;DHT22;673;48.098;14.422;2022-11-15T01:58:07;4.80;99.90
1359;DHT22;673;48.098;14.422;2022-11-15T02:00:34;4.70;99.90
1359;DHT22;673;48.098;14.422;2022-11-15T02:03:02;4.70;99.90
1359;DHT22;673;48.098;14.422;2022-11-15T02:05:30;4.60;99.90
1359;DHT22;673;48.098;14.422;2022-11-15T02:07:59;4.60;99.90
1359;DHT22;673;48.098;14.422;2022-11-15T02:10:28;4.60;99.90
1359;DHT22;673;48.098;14.422;2022-11-15T02:12:57;4.60;99.90
1359;DHT22;673;48.098;14.422;2022-11-15T02:15:31;4.60;99.90
1359;DHT22;673;48.098;14.422;2022-11-15T02:18:10;4.50;99.90
1359;DHT22;673;48.098;14.422;2022-11-15T02:20:52;4.50;99.90
1359;DHT22;673;48.098;14.422;2022-11-15T02:27:03;4.30;99.90
1359;DHT22;673;48.098;14.422;2022-11-15T02:29:48;4.40;99.90
1359;DHT22;673;48.098;14.422;2022-11-15T02:32:28;4.40;99.90
1359;DHT22;673;48.098;14.422;2022-11-15T02:35:01;4.40;99.90
1359;DHT22;673;48.098;14.422;2022-11-15T02:37:35;4.30;99.90
1359;DHT22;673;48.098;14.422;2022-11-15T02:40:10;4.50;99.90
1359;DHT22;673;48.098;14.422;2022-11-15T02:42:43;4.40;99.90
1359;DHT22;673;48.098;14.422;2022-11-15T02:45:33;4.40;99.90
1359;DHT22;673;48.098;14.422;2022-11-15T02:48:04;4.50;99.90
1359;DHT22;673;48.098;14.422;2022-11-15T02:50:33;4.40;99.90
1359;DHT22;673;48.098;14.422;2022-11-15T02:53:00;4.40;99.90
1359;DHT22;673;48.098;14.422;2022-11-15T02:55:29;4.40;99.90
1359;DHT22;673;48.098;14.422;2022-11-15T02:58:16;4.40;99.90
1359;DHT22;673;48.098;14.422;2022-11-15T03:00:50;4.40;99.90
1359;DHT22;673;48.098;14.422;2022-11-15T03:03:33;4.50;99.90
1359;DHT22;673;48.098;14.422;2022-11-15T03:06:16;4.60;99.90
1359;DHT22;673;48.098;14.422;2022-11-15T03:08:51;4.70;99.90
1359;DHT22;673;48.098;14.422;2022-11-15T03:11:23;4.70;99.90
1359;DHT22;673;48.098;14.422;2022-11-15T03:14:00;4.50;99.90
1359;DHT22;673;48.098;14.422;2022-11-15T03:16:30;4.40;99.90
1359;DHT22;673;48.098;14.422;2022-11-15T03:19:06;4.30;99.90
1359;DHT22;673;48.098;14.422;2022-11-15T03:21:37;4.40;99.90
1359;DHT22;673;48.098;14.422;2022-11-15T03:24:07;4.70;99.90
1359;DHT22;673;48.098;14.422;2022-11-15T03:26:37;4.90;99.90
1359;DHT22;673;48.098;14.422;2022-11-15T03:29:11;4.90;99.90
1359;DHT22;673;48.098;14.422;2022-11-15T03:31:44;5.00;99.90
1359;DHT22;673;48.098;14.422;2022-11-15T03:34:22;5.10;99.90
1359;DHT22;673;48.098;14.422;2022-11-15T03:36:51;5.10;99.90
1359;DHT22;673;48.098;14.422;2022-11-15T03:39:20;5.00;99.90
1359;DHT22;673;48.098;14.422;2022-11-15T03:41:50;5.00;99.90
1359;DHT22;673;48.098;14.422;2022-11-15T03:44:30;4.90;99.90
1359;DHT22;673;48.098;14.422;2022-11-15T03:47:04;4.90;99.90
1359;DHT22;673;48.098;14.422;2022-11-15T03:49:36;4.90;99.90
1359;DHT22;673;48.098;14.422;2022-11-15T03:52:04;4.90;99.90
1359;DHT22;673;48.098;14.422;2022-11-15T03:54:32;4.80;99.90
1359;DHT22;673;48.098;14.422;2022-11-15T03:56:59;4.70;99.90
1359;DHT22;673;48.098;14.422;2022-11-15T03:59:26;4.70;99.90
1359;DHT22;673;48.098;14.422;2022-11-15T04:01:53;4.70;99.90
1359;DHT22;673;48.098;14.422;2022-11-15T04:04:20;4.70;99.90
1359;DHT22;673;48.098;14.422;2022-11-15T04:06:48;4.70;99.90
1359;DHT22;673;48.098;14.422;2022-11-15T04:09:15;4.50;99.90
1359;DHT22;673;48.098;14.422;2022-11-15T04:11:42;4.40;99.90
1359;DHT22;673;48.098;14.422;2022-11-15T04:14:09;4.30;99.90
1359;DHT22;673;48.098;14.422;2022-11-15T04:16:36;4.40;99.90
1359;DHT22;673;48.098;14.422;2022-11-15T04:19:03;4.40;99.90
1359;DHT22;673;48.098;14.422;2022-11-15T04:21:49;4.30;99.90
1359;DHT22;673;48.098;14.422;2022-11-15T04:24:33;4.30;99.90
1359;DHT22;673;48.098;14.422;2022-11-15T04:27:00;4.40;99.90
1359;DHT22;673;48.098;14.422;2022-11-15T04:29:27;4.40;99.90
1359;DHT22;673;48.098;14.422;2022-11-15T04:32:11;4.20;99.90
1359;DHT22;673;48.098;14.422;2022-11-15T04:34:38;4.20;99.90
1359;DHT22;673;48.098;14.422;2022-11-15T04:37:06;4.00;99.90
1359;DHT22;673;48.098;14.422;2022-11-15T04:39:39;3.90;99.90
1359;DHT22;673;48.098;14.422;2022-11-15T04:42:07;3.90;99.90
1359;DHT22;673;48.098;14.422;2022-11-15T04:44:35;4.00;99.90
1359;DHT22;673;48.098;14.422;2022-11-15T04:47:02;4.10;99.90
1359;DHT22;673;48.098;14.422;2022-11-15T04:49:29;4.20;99.90
1359;DHT22;673;48.098;14.422;2022-11-15T04:51:56;4.20;99.90
1359;DHT22;673;48.098;14.422;2022-11-15T04:54:24;4.30;99.90
1359;DHT22;673;48.098;14.422;2022-11-15T04:56:51;4.30;99.90
1359;DHT22;673;48.098;14.422;2022-11-15T04:59:18;4.30;99.90
1359;DHT22;673;48.098;14.422;2022-11-15T05:01:45;4.30;99.90
1359;DHT22;673;48.098;14.422;2022-11-15T05:04:12;4.30;99.90
1359;DHT22;673;48.098;14.422;2022-11-15T05:06:48;4.30;99.90
1359;DHT22;673;48.098;14.422;2022-11-15T05:09:16;4.30;99.90
1359;DHT22;673;48.098;14.422;2022-11-15T05:11:44;4.30;99.90
1359;DHT22;673;48.098;14.422;2022-11-15T05:14:12;4.30;99.90
1359;DHT22;673;48.098;14.422;2022-11-15T05:16:39;4.30;99.90
1359;DHT22;673;48.098;14.422;2022-11-15T05:19:06;4.20;99.90
1359;DHT22;673;48.098;14.422;2022-11-15T05:21:33;4.20;99.90
1359;DHT22;673;48.098;14.422;2022-11-15T05:24:01;4.20;99.90
1359;DHT22;673;48.098;14.422;2022-11-15T05:26:28;4.20;99.90
1359;DHT22;673;48.098;14.422;2022-11-15T05:28:57;4.30;99.90
1359;DHT22;673;48.098;14.422;2022-11-15T05:31:26;4.30;99.90
1359;DHT22;673;48.098;14.422;2022-11-15T05:33:53;4.20;99.90
1359;DHT22;673;48.098;14.422;2022-11-15T05:36:27;4.20;99.90
1359;DHT22;673;48.098;14.422;2022-11-15T05:38:55;4.20;99.90
1359;DHT22;673;48.098;14.422;2022-11-15T05:41:28;4.30;99.90
1359;DHT22;673;48.098;14.422;2022-11-15T05:43:57;4.30;99.90
1359;DHT22;673;48.098;14.422;2022-11-15T05:46:25;4.20;99.90
1359;DHT22;673;48.098;14.422;2022-11-15T05:48:52;4.20;99.90
1359;DHT22;673;48.098;14.422;2022-11-15T05:51:22;4.20;99.90
1359;DHT22;673;48.098;14.422;2022-11-15T05:53:50;4.20;99.90
1359;DHT22;673;48.098;14.422;2022-11-15T05:56:18;4.10;99.90
1359;DHT22;673;48.098;14.422;2022-11-15T05:58:45;4.10;99.90
1359;DHT22;673;48.098;14.422;2022-11-15T06:01:13;4.20;99.90
1359;DHT22;673;48.098;14.422;2022-11-15T06:03:40;4.30;99.90
1359;DHT22;673;48.098;14.422;2022-11-15T06:06:08;4.20;99.90
1359;DHT22;673;48.098;14.422;2022-11-15T06:08:35;4.10;99.90
1359;DHT22;673;48.098;14.422;2022-11-15T06:11:05;4.20;99.90
1359;DHT22;673;48.098;14.422;2022-11-15T06:13:32;4.20;99.90
1359;DHT22;673;48.098;14.422;2022-11-15T06:15:59;4.20;99.90
1359;DHT22;673;48.098;14.422;2022-11-15T06:18:28;4.30;99.90
1359;DHT22;673;48.098;14.422;2022-11-15T06:20:58;4.40;99.90
1359;DHT22;673;48.098;14.422;2022-11-15T06:23:26;4.30;99.90
1359;DHT22;673;48.098;14.422;2022-11-15T06:25:53;4.30;99.90
1359;DHT22;673;48.098;14.422;2022-11-15T06:28:20;4.40;99.90
1359;DHT22;673;48.098;14.422;2022-11-15T06:30:47;4.30;99.90
1359;DHT22;673;48.098;14.422;2022-11-15T06:33:14;4.30;99.90
1359;DHT22;673;48.098;14.422;2022-11-15T06:35:42;4.30;99.90
1359;DHT22;673;48.098;14.422;2022-11-15T06:38:10;4.20;99.90
1359;DHT22;673;48.098;14.422;2022-11-15T06:40:38;4.20;99.90
1359;DHT22;673;48.098;14.422;2022-11-15T06:43:06;4.20;99.90
1359;DHT22;673;48.098;14.422;2022-11-15T06:45:33;4.20;99.90
1359;DHT22;673;48.098;14.422;2022-11-15T06:48:00;4.20;99.90
1359;DHT22;673;48.098;14.422;2022-11-15T06:50:27;4.20;99.90
1359;DHT22;673;48.098;14.422;2022-11-15T06:53:01;4.30;99.90
1359;DHT22;673;48.098;14.422;2022-11-15T06:55:28;4.50;99.90
1359;DHT22;673;48.098;14.422;2022-11-15T06:57:55;4.50;99.90
1359;DHT22;673;48.098;14.422;2022-11-15T07:00:22;4.60;99.90
1359;DHT22;673;48.098;14.422;2022-11-15T07:02:50;4.60;99.90
1359;DHT22;673;48.098;14.422;2022-11-15T07:05:17;4.70;99.90
1359;DHT22;673;48.098;14.422;2022-11-15T07:07:51;4.60;99.90
1359;DHT22;673;48.098;14.422;2022-11-15T07:10:20;4.60;99.90
1359;DHT22;673;48.098;14.422;2022-11-15T07:12:49;4.50;99.90
1359;DHT22;673;48.098;14.422;2022-11-15T07:15:17;4.40;99.90
1359;DHT22;673;48.098;14.422;2022-11-15T07:17:44;4.50;99.90
1359;DHT22;673;48.098;14.422;2022-11-15T07:20:12;4.50;99.90
1359;DHT22;673;48.098;14.422;2022-11-15T07:22:40;4.60;99.90
1359;DHT22;673;48.098;14.422;2022-11-15T07:25:08;4.60;99.90
1359;DHT22;673;48.098;14.422;2022-11-15T07:27:36;4.60;99.90
1359;DHT22;673;48.098;14.422;2022-11-15T07:30:05;4.70;99.90
1359;DHT22;673;48.098;14.422;2022-11-15T07:32:32;4.70;99.90
1359;DHT22;673;48.098;14.422;2022-11-15T07:34:59;4.80;99.90
1359;DHT22;673;48.098;14.422;2022-11-15T07:37:26;4.60;99.90
1359;DHT22;673;48.098;14.422;2022-11-15T07:39:53;4.70;99.90
1359;DHT22;673;48.098;14.422;2022-11-15T07:42:20;4.70;99.90
1359;DHT22;673;48.098;14.422;2022-11-15T07:45:07;4.70;99.90
1359;DHT22;673;48.098;14.422;2022-11-15T07:47:34;4.90;99.90
1359;DHT22;673;48.098;14.422;2022-11-15T07:50:01;4.90;99.90
1359;DHT22;673;48.098;14.422;2022-11-15T07:52:28;5.00;99.90
1359;DHT22;673;48.098;14.422;2022-11-15T07:54:55;5.00;99.90
1359;DHT22;673;48.098;14.422;2022-11-15T07:57:22;5.00;99.90
1359;DHT22;673;48.098;14.422;2022-11-15T07:59:49;5.10;99.90
1359;DHT22;673;48.098;14.422;2022-11-15T08:02:17;5.00;99.90
1359;DHT22;673;48.098;14.422;2022-11-15T08:04:44;5.10;99.90
1359;DHT22;673;48.098;14.422;2022-11-15T08:07:11;5.20;99.90
1359;DHT22;673;48.098;14.422;2022-11-15T08:09:38;5.20;99.90
1359;DHT22;673;48.098;14.422;2022-11-15T08:12:05;5.20;99.90
1359;DHT22;673;48.098;14.422;2022-11-15T08:14:32;5.30;99.90
1359;DHT22;673;48.098;14.422;2022-11-15T08:16:59;5.50;99.90
1359;DHT22;673;48.098;14.422;2022-11-15T08:19:28;5.40;99.90
1359;DHT22;673;48.098;14.422;2022-11-15T08:21:55;5.40;99.90
1359;DHT22;673;48.098;14.422;2022-11-15T08:24:22;5.40;99.90
1359;DHT22;673;48.098;14.422;2022-11-15T08:26:49;5.50;99.90
1359;DHT22;673;48.098;14.422;2022-11-15T08:29:16;5.40;99.90
1359;DHT22;673;48.098;14.422;2022-11-15T08:31:43;5.40;99.90
1359;DHT22;673;48.098;14.422;2022-11-15T08:34:11;5.50;99.90
1359;DHT22;673;48.098;14.422;2022-11-15T08:36:39;5.50;99.90
1359;DHT22;673;48.098;14.422;2022-11-15T08:39:06;5.40;99.90
1359;DHT22;673;48.098;14.422;2022-11-15T08:41:35;5.40;99.90
1359;DHT22;673;48.098;14.422;2022-11-15T08:44:02;5.40;99.90
1359;DHT22;673;48.098;14.422;2022-11-15T08:46:29;5.40;99.90
1359;DHT22;673;48.098;14.422;2022-11-15T08:48:56;5.60;99.90
1359;DHT22;673;48.098;14.422;2022-11-15T08:51:23;5.70;99.90
1359;DHT22;673;48.098;14.422;2022-11-15T08:53:51;5.70;99.90
1359;DHT22;673;48.098;14.422;2022-11-15T08:56:18;5.60;99.90
1359;DHT22;673;48.098;14.422;2022-11-15T08:58:45;5.50;99.90
1359;DHT22;673;48.098;14.422;2022-11-15T09:01:18;5.60;99.90
1359;DHT22;673;48.098;14.422;2022-11-15T09:03:46;5.70;99.90
1359;DHT22;673;48.098;14.422;2022-11-15T09:06:13;5.60;99.90
1359;DHT22;673;48.098;14.422;2022-11-15T09:08:40;5.60;99.90
1359;DHT22;673;48.098;14.422;2022-11-15T09:11:09;5.70;99.90
1359;DHT22;673;48.098;14.422;2022-11-15T09:13:37;5.70;99.90
1359;DHT22;673;48.098;14.422;2022-11-15T09:16:05;5.70;99.90
1359;DHT22;673;48.098;14.422;2022-11-15T09:18:32;5.80;99.90
1359;DHT22;673;48.098;14.422;2022-11-15T09:21:00;5.70;99.90
1359;DHT22;673;48.098;14.422;2022-11-15T09:23:28;5.70;99.90
1359;DHT22;673;48.098;14.422;2022-11-15T09:25:59;5.80;99.90
1359;DHT22;673;48.098;14.422;2022-11-15T09:28:28;5.80;99.90
1359;DHT22;673;48.098;14.422;2022-11-15T09:30:57;5.70;99.90
1359;DHT22;673;48.098;14.422;2022-11-15T09:33:25;5.70;99.90
1359;DHT22;673;48.098;14.422;2022-11-15T09:35:52;5.80;99.90
1359;DHT22;673;48.098;14.422;2022-11-15T09:38:20;5.80;99.90
1359;DHT22;673;48.098;14.422;2022-11-15T09:40:50;5.90;99.90
1359;DHT22;673;48.098;14.422;2022-11-15T09:43:32;5.80;99.90
1359;DHT22;673;48.098;14.422;2022-11-15T09:46:11;5.90;99.90
1359;DHT22;673;48.098;14.422;2022-11-15T09:48:49;6.00;99.90
1359;DHT22;673;48.098;14.422;2022-11-15T09:51:25;6.00;99.90
1359;DHT22;673;48.098;14.422;2022-11-15T09:54:02;6.00;99.90
1359;DHT22;673;48.098;14.422;2022-11-15T09:56:32;6.10;99.90
1359;DHT22;673;48.098;14.422;2022-11-15T09:59:22;6.20;99.90
1359;DHT22;673;48.098;14.422;2022-11-15T10:01:56;6.20;99.90
1359;DHT22;673;48.098;14.422;2022-11-15T10:04:25;6.10;99.90
1359;DHT22;673;48.098;14.422;2022-11-15T10:06:58;6.20;99.90
1359;DHT22;673;48.098;14.422;2022-11-15T10:09:33;6.30;99.90
1359;DHT22;673;48.098;14.422;2022-11-15T10:12:03;6.30;99.90
1359;DHT22;673;48.098;14.422;2022-11-15T10:14:31;6.30;99.90
1359;DHT22;673;48.098;14.422;2022-11-15T10:17:37;6.40;99.90
1359;DHT22;673;48.098;14.422;2022-11-15T10:20:12;6.50;99.90
1359;DHT22;673;48.098;14.422;2022-11-15T10:22:44;6.50;99.90
1359;DHT22;673;48.098;14.422;2022-11-15T10:25:19;6.60;99.90
1359;DHT22;673;48.098;14.422;2022-11-15T10:27:52;6.60;99.90
1359;DHT22;673;48.098;14.422;2022-11-15T10:30:22;6.40;99.90
1359;DHT22;673;48.098;14.422;2022-11-15T10:32:49;6.30;99.90
1359;DHT22;673;48.098;14.422;2022-11-15T10:35:22;6.20;99.90
1359;DHT22;673;48.098;14.422;2022-11-15T10:37:49;6.20;99.90
1359;DHT22;673;48.098;14.422;2022-11-15T10:40:19;6.00;99.90
1359;DHT22;673;48.098;14.422;2022-11-15T10:42:47;6.00;99.90
1359;DHT22;673;48.098;14.422;2022-11-15T10:45:26;6.00;99.90
1359;DHT22;673;48.098;14.422;2022-11-15T10:48:22;5.90;99.90
1359;DHT22;673;48.098;14.422;2022-11-15T10:50:50;5.90;99.90
1359;DHT22;673;48.098;14.422;2022-11-15T10:53:26;5.90;99.90
1359;DHT22;673;48.098;14.422;2022-11-15T10:55:56;5.90;99.90
1359;DHT22;673;48.098;14.422;2022-11-15T10:58:32;5.90;99.90
1359;DHT22;673;48.098;14.422;2022-11-15T11:01:11;5.80;99.90
1359;DHT22;673;48.098;14.422;2022-11-15T11:03:40;6.00;99.90
1359;DHT22;673;48.098;14.422;2022-11-15T11:06:10;6.00;99.90
1359;DHT22;673;48.098;14.422;2022-11-15T11:08:37;6.00;99.90
1359;DHT22;673;48.098;14.422;2022-11-15T11:11:05;6.00;99.90
1359;DHT22;673;48.098;14.422;2022-11-15T11:13:34;6.10;99.90
1359;DHT22;673;48.098;14.422;2022-11-15T11:16:20;6.20;99.90
1359;DHT22;673;48.098;14.422;2022-11-15T11:18:55;6.10;99.90
1359;DHT22;673;48.098;14.422;2022-11-15T11:21:29;6.20;99.90
1359;DHT22;673;48.098;14.422;2022-11-15T11:24:02;6.10;99.90
1359;DHT22;673;48.098;14.422;2022-11-15T11:26:39;6.10;99.90
1359;DHT22;673;48.098;14.422;2022-11-15T11:29:20;6.10;99.90
1359;DHT22;673;48.098;14.422;2022-11-15T11:31:58;6.00;99.90
1359;DHT22;673;48.098;14.422;2022-11-15T11:34:37;5.90;99.90
1359;DHT22;673;48.098;14.422;2022-11-15T11:37:12;5.90;99.90
1359;DHT22;673;48.098;14.422;2022-11-15T11:39:47;5.90;99.90
1359;DHT22;673;48.098;14.422;2022-11-15T11:42:26;5.90;99.90
1359;DHT22;673;48.098;14.422;2022-11-15T11:45:03;6.00;99.90
1359;DHT22;673;48.098;14.422;2022-11-15T11:47:39;6.00;99.90
1359;DHT22;673;48.098;14.422;2022-11-15T11:50:13;6.00;99.90
1359;DHT22;673;48.098;14.422;2022-11-15T11:52:44;6.00;99.90
1359;DHT22;673;48.098;14.422;2022-11-15T11:55:17;5.90;99.90
1359;DHT22;673;48.098;14.422;2022-11-15T11:57:48;6.10;99.90
1359;DHT22;673;48.098;14.422;2022-11-15T12:00:19;6.10;99.90
1359;DHT22;673;48.098;14.422;2022-11-15T12:02:54;6.10;99.90
1359;DHT22;673;48.098;14.422;2022-11-15T12:05:30;6.10;99.90
1359;DHT22;673;48.098;14.422;2022-11-15T12:08:03;6.20;99.90
1359;DHT22;673;48.098;14.422;2022-11-15T12:10:33;6.20;99.90
1359;DHT22;673;48.098;14.422;2022-11-15T12:13:05;6.10;99.90
1359;DHT22;673;48.098;14.422;2022-11-15T12:15:39;6.20;99.90
1359;DHT22;673;48.098;14.422;2022-11-15T12:18:13;6.30;99.90
1359;DHT22;673;48.098;14.422;2022-11-15T12:20:50;6.30;99.90
1359;DHT22;673;48.098;14.422;2022-11-15T12:23:22;6.30;99.90
1359;DHT22;673;48.098;14.422;2022-11-15T12:25:53;6.30;99.90
1359;DHT22;673;48.098;14.422;2022-11-15T12:28:28;6.30;99.90
1359;DHT22;673;48.098;14.422;2022-11-15T12:31:03;6.30;99.90
1359;DHT22;673;48.098;14.422;2022-11-15T12:33:37;6.30;99.90
1359;DHT22;673;48.098;14.422;2022-11-15T12:36:10;6.50;99.90
1359;DHT22;673;48.098;14.422;2022-11-15T12:38:56;6.60;99.90
1359;DHT22;673;48.098;14.422;2022-11-15T12:41:25;6.50;99.90
1359;DHT22;673;48.098;14.422;2022-11-15T12:43:52;6.30;99.90
1359;DHT22;673;48.098;14.422;2022-11-15T12:46:22;6.40;99.90
1359;DHT22;673;48.098;14.422;2022-11-15T12:48:57;6.30;99.90
1359;DHT22;673;48.098;14.422;2022-11-15T12:54:58;6.10;99.90
1359;DHT22;673;48.098;14.422;2022-11-15T12:57:31;6.10;99.90
1359;DHT22;673;48.098;14.422;2022-11-15T13:00:00;6.10;99.90
1359;DHT22;673;48.098;14.422;2022-11-15T13:02:31;6.10;99.90
1359;DHT22;673;48.098;14.422;2022-11-15T13:08:02;6.20;99.90
1359;DHT22;673;48.098;14.422;2022-11-15T13:10:31;6.20;99.90
1359;DHT22;673;48.098;14.422;2022-11-15T13:13:00;6.20;99.90
1359;DHT22;673;48.098;14.422;2022-11-15T13:18:35;6.30;99.90
1359;DHT22;673;48.098;14.422;2022-11-15T13:21:05;6.30;99.90
1359;DHT22;673;48.098;14.422;2022-11-15T13:23:55;6.30;99.90
1359;DHT22;673;48.098;14.422;2022-11-15T13:26:22;6.20;99.90
1359;DHT22;673;48.098;14.422;2022-11-15T13:28:51;6.10;99.90
1359;DHT22;673;48.098;14.422;2022-11-15T13:31:25;6.20;99.90
1359;DHT22;673;48.098;14.422;2022-11-15T13:33:54;6.20;99.90
1359;DHT22;673;48.098;14.422;2022-11-15T13:36:25;6.20;99.90
1359;DHT22;673;48.098;14.422;2022-11-15T13:38:58;6.20;99.90
1359;DHT22;673;48.098;14.422;2022-11-15T13:41:27;6.20;99.90
1359;DHT22;673;48.098;14.422;2022-11-15T13:43:55;6.30;99.90
1359;DHT22;673;48.098;14.422;2022-11-15T13:46:24;6.10;99.90
1359;DHT22;673;48.098;14.422;2022-11-15T13:48:54;6.10;99.90
1359;DHT22;673;48.098;14.422;2022-11-15T13:51:30;6.00;99.90
1359;DHT22;673;48.098;14.422;2022-11-15T13:54:08;6.00;99.90
1359;DHT22;673;48.098;14.422;2022-11-15T13:56:37;5.90;99.90
1359;DHT22;673;48.098;14.422;2022-11-15T13:59:09;6.00;99.90
1359;DHT22;673;48.098;14.422;2022-11-15T14:01:37;6.00;99.90
1359;DHT22;673;48.098;14.422;2022-11-15T14:04:12;6.00;99.90
1359;DHT22;673;48.098;14.422;2022-11-15T14:06:45;5.90;99.90
1359;DHT22;673;48.098;14.422;2022-11-15T14:09:34;5.90;99.90
1359;DHT22;673;48.098;14.422;2022-11-15T14:12:19;5.90;99.90
1359;DHT22;673;48.098;14.422;2022-11-15T14:14:48;5.90;99.90
1359;DHT22;673;48.098;14.422;2022-11-15T14:17:20;5.80;99.90
1359;DHT22;673;48.098;14.422;2022-11-15T14:19:49;5.90;99.90
1359;DHT22;673;48.098;14.422;2022-11-15T14:22:21;5.80;99.90
1359;DHT22;673;48.098;14.422;2022-11-15T14:25:15;5.80;99.90
1359;DHT22;673;48.098;14.422;2022-11-15T14:27:45;5.80;99.90
1359;DHT22;673;48.098;14.422;2022-11-15T14:30:32;5.80;99.90
1359;DHT22;673;48.098;14.422;2022-11-15T14:32:59;5.80;99.90
1359;DHT22;673;48.098;14.422;2022-11-15T14:35:26;5.80;99.90
1359;DHT22;673;48.098;14.422;2022-11-15T14:37:53;5.80;99.90
1359;DHT22;673;48.098;14.422;2022-11-15T14:40:21;5.70;99.90
1359;DHT22;673;48.098;14.422;2022-11-15T14:42:49;5.80;99.90
1359;DHT22;673;48.098;14.422;2022-11-15T14:45:18;5.70;99.90
1359;DHT22;673;48.098;14.422;2022-11-15T14:47:47;5.70;99.90
1359;DHT22;673;48.098;14.422;2022-11-15T14:50:16;5.60;99.90
1359;DHT22;673;48.098;14.422;2022-11-15T14:52:44;5.70;99.90
1359;DHT22;673;48.098;14.422;2022-11-15T14:55:17;5.70;99.90
1359;DHT22;673;48.098;14.422;2022-11-15T14:57:46;5.70;99.90
1359;DHT22;673;48.098;14.422;2022-11-15T15:00:13;5.70;99.90
1359;DHT22;673;48.098;14.422;2022-11-15T15:02:41;5.70;99.90
1359;DHT22;673;48.098;14.422;2022-11-15T15:05:17;5.70;99.90
1359;DHT22;673;48.098;14.422;2022-11-15T15:07:45;5.70;99.90
1359;DHT22;673;48.098;14.422;2022-11-15T15:10:13;5.70;99.90
1359;DHT22;673;48.098;14.422;2022-11-15T15:12:41;5.60;99.90
1359;DHT22;673;48.098;14.422;2022-11-15T15:15:13;5.60;99.90
1359;DHT22;673;48.098;14.422;2022-11-15T15:17:41;5.60;99.90
1359;DHT22;673;48.098;14.422;2022-11-15T15:20:08;5.60;99.90
1359;DHT22;673;48.098;14.422;2022-11-15T15:22:37;5.60;99.90
1359;DHT22;673;48.098;14.422;2022-11-15T15:25:20;5.60;99.90
1359;DHT22;673;48.098;14.422;2022-11-15T15:27:47;5.60;99.90
1359;DHT22;673;48.098;14.422;2022-11-15T15:30:15;5.70;99.90
1359;DHT22;673;48.098;14.422;2022-11-15T15:32:42;5.60;99.90
1359;DHT22;673;48.098;14.422;2022-11-15T15:35:12;5.60;99.90
1359;DHT22;673;48.098;14.422;2022-11-15T15:37:40;5.60;99.90
1359;DHT22;673;48.098;14.422;2022-11-15T15:40:12;5.60;99.90
1359;DHT22;673;48.098;14.422;2022-11-15T15:42:40;5.70;99.90
1359;DHT22;673;48.098;14.422;2022-11-15T15:45:08;5.60;99.90
1359;DHT22;673;48.098;14.422;2022-11-15T15:47:35;5.60;99.90
1359;DHT22;673;48.098;14.422;2022-11-15T15:50:03;5.60;99.90
1359;DHT22;673;48.098;14.422;2022-11-15T15:52:31;5.60;99.90
1359;DHT22;673;48.098;14.422;2022-11-15T15:54:59;5.60;99.90
1359;DHT22;673;48.098;14.422;2022-11-15T15:57:26;5.60;99.90
1359;DHT22;673;48.098;14.422;2022-11-15T15:59:53;5.70;99.90
1359;DHT22;673;48.098;14.422;2022-11-15T16:02:20;5.70;99.90
1359;DHT22;673;48.098;14.422;2022-11-15T16:04:47;5.70;99.90
1359;DHT22;673;48.098;14.422;2022-11-15T16:07:17;5.70;99.90
1359;DHT22;673;48.098;14.422;2022-11-15T16:09:47;5.70;99.90
1359;DHT22;673;48.098;14.422;2022-11-15T16:12:28;5.80;99.90
1359;DHT22;673;48.098;14.422;2022-11-15T16:14:55;5.70;99.90
1359;DHT22;673;48.098;14.422;2022-11-15T16:17:24;5.70;99.90
1359;DHT22;673;48.098;14.422;2022-11-15T16:19:51;5.80;99.90
1359;DHT22;673;48.098;14.422;2022-11-15T16:22:18;5.80;99.90
1359;DHT22;673;48.098;14.422;2022-11-15T16:24:45;5.90;99.90
1359;DHT22;673;48.098;14.422;2022-11-15T16:27:14;5.80;99.90
1359;DHT22;673;48.098;14.422;2022-11-15T16:29:42;5.80;99.90
1359;DHT22;673;48.098;14.422;2022-11-15T16:32:09;5.80;99.90
1359;DHT22;673;48.098;14.422;2022-11-15T16:34:37;5.80;99.90
1359;DHT22;673;48.098;14.422;2022-11-15T16:37:05;5.80;99.90
1359;DHT22;673;48.098;14.422;2022-11-15T16:39:32;5.80;99.90
1359;DHT22;673;48.098;14.422;2022-11-15T16:41:59;5.80;99.90
1359;DHT22;673;48.098;14.422;2022-11-15T16:44:28;5.80;99.90
1359;DHT22;673;48.098;14.422;2022-11-15T16:46:56;5.80;99.90
1359;DHT22;673;48.098;14.422;2022-11-15T16:49:23;5.80;99.90
1359;DHT22;673;48.098;14.422;2022-11-15T16:51:50;5.80;99.90